createdAt,value
2023-04-13T00:01:11.181Z,96043.31
2023-04-13T00:03:39.292Z,96044.25
2023-04-13T00:06:06.562Z,96039.94
2023-04-13T00:08:35.827Z,96038.28
2023-04-13T00:11:04.224Z,96037.72
2023-04-13T00:13:30.907Z,96042.34
2023-04-13T00:15:57.420Z,96046.06
2023-04-13T00:18:24.119Z,96041.75
2023-04-13T00:20:50.702Z,96041.28
2023-04-13T00:23:18.024Z,96047.59
2023-04-13T00:25:44.609Z,96041.88
2023-04-13T00:28:11.892Z,96042.47
2023-04-13T00:30:38.526Z,96046.19
2023-04-13T00:33:05.137Z,96040.19
2023-04-13T00:35:32.012Z,96035.31
2023-04-13T00:37:58.843Z,96026.72
2023-04-13T00:40:25.463Z,96031.97
2023-04-13T00:42:52.350Z,96029.25
2023-04-13T00:45:19.393Z,96024.59
2023-04-13T00:47:47.859Z,96025.66
2023-04-13T00:50:17.426Z,96036.41
2023-04-13T00:52:45.817Z,96030.41
2023-04-13T00:55:12.396Z,96046.16
2023-04-13T00:57:41.025Z,96045.53
2023-04-13T01:00:12.742Z,96046.50
2023-04-13T01:02:42.712Z,96041.25
2023-04-13T01:05:12.525Z,96045.78
2023-04-13T01:07:48.466Z,96048.53
2023-04-13T01:10:42.298Z,96054.00
2023-04-13T01:13:30.897Z,96053.91
2023-04-13T01:16:23.347Z,96055.78
2023-04-13T01:18:53.089Z,96052.22
2023-04-13T01:21:25.955Z,96049.47
2023-04-13T01:23:55.525Z,96047.81
2023-04-13T01:26:22.758Z,96050.31
2023-04-13T01:28:51.274Z,96055.22
2023-04-13T01:31:19.209Z,96056.28
2023-04-13T01:33:47.867Z,96060.59
2023-04-13T01:36:14.612Z,96064.16
2023-04-13T01:38:41.155Z,96057.59
2023-04-13T01:41:08.762Z,96060.44
2023-04-13T01:43:35.889Z,96061.28
2023-04-13T01:46:11.593Z,96054.59
2023-04-13T01:48:45.436Z,96067.72
2023-04-13T01:51:17.264Z,96064.25
2023-04-13T01:53:49.010Z,96070.22
2023-04-13T01:56:19.343Z,96072.69
2023-04-13T01:58:51.854Z,96073.66
2023-04-13T02:01:18.428Z,96072.09
2023-04-13T02:03:45.357Z,96071.13
2023-04-13T02:06:12.092Z,96075.66
2023-04-13T02:08:40.288Z,96083.53
2023-04-13T02:11:07.762Z,96086.25
2023-04-13T02:13:34.599Z,96087.31
2023-04-13T02:16:01.182Z,96088.53
2023-04-13T02:18:27.704Z,96091.56
2023-04-13T02:21:04.394Z,96091.19
2023-04-13T02:23:32.015Z,96092.47
2023-04-13T02:25:58.485Z,96091.63
2023-04-13T02:28:26.307Z,96098.88
2023-04-13T02:30:52.809Z,96121.63
2023-04-13T02:33:21.248Z,96135.13
2023-04-13T02:35:51.234Z,96135.19
2023-04-13T02:38:17.757Z,96149.72
2023-04-13T02:40:45.960Z,96154.88
2023-04-13T02:43:12.884Z,96152.81
2023-04-13T02:45:40.122Z,96159.72
2023-04-13T02:48:09.468Z,96162.03
2023-04-13T02:50:36.422Z,96160.34
2023-04-13T02:53:02.979Z,96163.41
2023-04-13T02:55:29.642Z,96159.22
2023-04-13T02:57:57.982Z,96159.22
2023-04-13T03:00:25.633Z,96158.38
2023-04-13T03:02:53.231Z,96149.94
2023-04-13T03:05:20.058Z,96157.03
2023-04-13T03:07:46.585Z,96156.28
2023-04-13T03:10:14.044Z,96162.28
2023-04-13T03:12:40.617Z,96158.19
2023-04-13T03:15:10.932Z,96159.13
2023-04-13T03:17:41.463Z,96157.44
2023-04-13T03:20:10.549Z,96156.75
2023-04-13T03:22:37.095Z,96152.44
2023-04-13T03:25:03.856Z,96154.44
2023-04-13T03:27:30.404Z,96151.81
2023-04-13T03:29:56.942Z,96158.19
2023-04-13T03:32:23.575Z,96161.97
2023-04-13T03:34:50.280Z,96164.81
2023-04-13T03:37:16.785Z,96165.06
2023-04-13T03:39:43.278Z,96180.88
2023-04-13T03:42:10.097Z,96172.00
2023-04-13T03:44:36.544Z,96177.22
2023-04-13T03:47:03.060Z,96169.38
2023-04-13T03:49:32.413Z,96158.38
2023-04-13T03:51:59.006Z,96155.66
2023-04-13T03:54:26.033Z,96158.09
2023-04-13T03:56:52.686Z,96161.31
2023-04-13T03:59:19.179Z,96162.78
2023-04-13T04:01:45.750Z,96161.75
2023-04-13T04:04:12.349Z,96160.00
2023-04-13T04:06:38.915Z,96165.41
2023-04-13T04:09:05.255Z,96163.63
2023-04-13T04:11:31.685Z,96155.47
2023-04-13T04:13:59.343Z,96159.13
2023-04-13T04:16:25.981Z,96165.28
2023-04-13T04:18:52.325Z,96161.84
2023-04-13T04:21:21.655Z,96155.66
2023-04-13T04:23:48.254Z,96162.56
2023-04-13T04:26:14.710Z,96165.00
2023-04-13T04:28:41.123Z,96168.22
2023-04-13T04:31:10.652Z,96156.81
2023-04-13T04:33:38.687Z,96151.47
2023-04-13T04:36:10.065Z,96161.75
2023-04-13T04:38:36.664Z,96154.72
2023-04-13T04:41:03.068Z,96146.13
2023-04-13T04:43:30.335Z,96143.72
2023-04-13T04:45:59.468Z,96134.13
2023-04-13T04:48:26.699Z,96145.41
2023-04-13T04:50:53.741Z,96152.22
2023-04-13T04:53:20.498Z,96152.00
2023-04-13T04:55:47.051Z,96154.59
2023-04-13T04:58:13.455Z,96149.47
2023-04-13T05:00:40.122Z,96150.94
2023-04-13T05:03:08.263Z,96162.16
2023-04-13T05:05:35.352Z,96164.66
2023-04-13T05:08:01.993Z,96166.13
2023-04-13T05:10:29.643Z,96166.97
2023-04-13T05:12:56.770Z,96168.97
2023-04-13T05:15:23.239Z,96169.06
2023-04-13T05:17:50.948Z,96182.34
2023-04-13T05:20:17.922Z,96188.22
2023-04-13T05:22:44.330Z,96187.28
2023-04-13T05:25:10.759Z,96192.50
2023-04-13T05:27:37.223Z,96206.38
2023-04-13T05:30:05.319Z,96201.09
2023-04-13T05:32:35.060Z,96195.22
2023-04-13T05:35:01.632Z,96205.88
2023-04-13T05:37:28.258Z,96211.94
2023-04-13T05:39:54.681Z,96205.97
2023-04-13T05:42:21.090Z,96208.69
2023-04-13T05:44:47.561Z,96211.63
2023-04-13T05:47:13.937Z,96206.69
2023-04-13T05:49:40.347Z,96212.88
2023-04-13T05:52:08.095Z,96219.38
2023-04-13T05:54:34.562Z,96219.16
2023-04-13T05:57:00.928Z,96240.06
2023-04-13T05:59:27.475Z,96241.44
2023-04-13T06:01:54.230Z,96239.41
2023-04-13T06:04:21.012Z,96243.53
2023-04-13T06:06:47.557Z,96239.66
2023-04-13T06:09:14.763Z,96234.44
2023-04-13T06:11:41.736Z,96243.25
2023-04-13T06:14:08.133Z,96243.56
2023-04-13T06:16:34.650Z,96253.56
2023-04-13T06:19:01.319Z,96252.16
2023-04-13T06:21:30.117Z,96254.09
2023-04-13T06:23:56.563Z,96251.34
2023-04-13T06:26:23.060Z,96260.56
2023-04-13T06:28:49.467Z,96262.75
2023-04-13T06:31:16.603Z,96260.69
2023-04-13T06:33:43.361Z,96261.81
2023-04-13T06:36:09.975Z,96272.59
2023-04-13T06:38:36.379Z,96262.88
2023-04-13T06:41:03.150Z,96265.19
2023-04-13T06:43:29.984Z,96259.53
2023-04-13T06:46:00.539Z,96269.47
2023-04-13T06:48:27.186Z,96262.69
2023-04-13T06:50:57.139Z,96263.28
2023-04-13T06:53:24.693Z,96264.69
2023-04-13T06:55:51.137Z,96267.47
2023-04-13T06:58:17.617Z,96268.09
2023-04-13T07:00:44.195Z,96260.44
2023-04-13T07:03:11.171Z,96260.25
2023-04-13T07:05:38.830Z,96260.50
2023-04-13T07:08:06.199Z,96265.88
2023-04-13T07:10:32.616Z,96258.81
2023-04-13T07:12:58.992Z,96261.34
2023-04-13T07:15:25.381Z,96259.59
2023-04-13T07:17:52.511Z,96248.16
2023-04-13T07:20:19.111Z,96261.88
2023-04-13T07:22:45.446Z,96256.91
2023-04-13T07:25:11.830Z,96267.97
2023-04-13T07:27:38.278Z,96266.72
2023-04-13T07:30:04.968Z,96268.81
2023-04-13T07:32:31.727Z,96267.44
2023-04-13T07:35:01.349Z,96266.44
2023-04-13T07:37:27.968Z,96266.31
2023-04-13T07:39:54.900Z,96272.94
2023-04-13T07:42:21.463Z,96269.13
2023-04-13T07:44:48.005Z,96270.31
2023-04-13T07:47:14.729Z,96271.59
2023-04-13T07:49:41.253Z,96268.78
2023-04-13T07:52:07.964Z,96269.50
2023-04-13T07:54:35.956Z,96268.91
2023-04-13T07:57:03.052Z,96272.44
2023-04-13T07:59:29.807Z,96273.94
2023-04-13T08:01:56.507Z,96279.50
2023-04-13T08:04:23.176Z,96263.41
2023-04-13T08:06:49.785Z,96267.53
2023-04-13T08:09:16.273Z,96265.59
2023-04-13T08:11:43.090Z,96263.84
2023-04-13T08:14:09.804Z,96253.25
2023-04-13T08:16:36.478Z,96258.84
2023-04-13T08:19:03.091Z,96253.13
2023-04-13T08:21:30.061Z,96257.41
2023-04-13T08:23:57.037Z,96263.47
2023-04-13T08:26:24.399Z,96270.72
2023-04-13T08:28:52.984Z,96255.63
2023-04-13T08:31:20.423Z,96256.16
2023-04-13T08:33:47.285Z,96258.41
2023-04-13T08:36:14.035Z,96255.75
2023-04-13T08:38:40.543Z,96265.38
2023-04-13T08:41:07.247Z,96264.09
2023-04-13T08:43:35.806Z,96269.25
2023-04-13T08:46:06.025Z,96260.56
2023-04-13T08:48:46.042Z,96263.38
2023-04-13T08:51:18.162Z,96262.00
2023-04-13T08:53:44.766Z,96262.84
2023-04-13T08:56:14.805Z,96256.25
2023-04-13T08:58:42.993Z,96249.06
2023-04-13T09:01:14.101Z,96247.22
2023-04-13T09:03:51.169Z,96248.06
2023-04-13T09:06:25.923Z,96242.34
2023-04-13T09:08:57.151Z,96240.41
2023-04-13T09:11:24.096Z,96248.16
2023-04-13T09:13:53.815Z,96233.03
2023-04-13T09:16:20.527Z,96225.22
2023-04-13T09:18:58.301Z,96223.59
2023-04-13T09:21:39.974Z,96211.31
2023-04-13T09:24:07.340Z,96210.00
2023-04-13T09:26:48.210Z,96206.34
2023-04-13T09:29:17.377Z,96202.47
2023-04-13T09:31:45.664Z,96192.28
2023-04-13T09:34:13.076Z,96202.53
2023-04-13T09:36:53.435Z,96206.09
2023-04-13T09:39:26.767Z,96192.63
2023-04-13T09:41:54.346Z,96181.25
2023-04-13T09:44:28.440Z,96187.00
2023-04-13T09:47:03.356Z,96187.84
2023-04-13T09:49:40.650Z,96181.47
2023-04-13T09:52:18.186Z,96175.31
2023-04-13T09:54:49.685Z,96163.72
2023-04-13T09:57:32.262Z,96163.53
2023-04-13T10:00:01.619Z,96171.84
2023-04-13T10:02:29.022Z,96177.84
2023-04-13T10:04:55.972Z,96176.38
2023-04-13T10:07:26.854Z,96171.91
2023-04-13T10:09:54.498Z,96177.06
2023-04-13T10:12:22.505Z,96166.66
2023-04-13T10:14:51.572Z,96172.28
2023-04-13T10:17:33.401Z,96163.81
2023-04-13T10:20:07.905Z,96157.63
2023-04-13T10:22:34.622Z,96156.44
2023-04-13T10:25:01.393Z,96159.75
2023-04-13T10:27:28.478Z,96163.78
2023-04-13T10:29:55.186Z,96151.72
2023-04-13T10:32:28.269Z,96160.28
2023-04-13T10:34:55.959Z,96154.38
2023-04-13T10:37:27.433Z,96146.91
2023-04-13T10:40:13.925Z,96153.03
2023-04-13T10:42:52.482Z,96151.69
2023-04-13T10:45:28.597Z,96142.22
2023-04-13T10:47:56.333Z,96148.47
2023-04-13T10:50:24.320Z,96133.75
2023-04-13T10:53:05.418Z,96137.59
2023-04-13T10:55:33.374Z,96133.44
2023-04-13T10:58:01.212Z,96136.69
2023-04-13T11:00:44.865Z,96135.19
2023-04-13T11:03:17.341Z,96125.41
2023-04-13T11:05:46.423Z,96132.22
2023-04-13T11:08:20.583Z,96128.34
2023-04-13T11:10:55.021Z,96120.38
2023-04-13T11:13:24.978Z,96119.47
2023-04-13T11:15:51.939Z,96120.97
2023-04-13T11:18:28.681Z,96112.66
2023-04-13T11:20:55.464Z,96117.28
2023-04-13T11:23:24.374Z,96122.41
2023-04-13T11:25:58.329Z,96113.59
2023-04-13T11:28:36.471Z,96108.00
2023-04-13T11:31:03.017Z,96104.28
2023-04-13T11:33:31.301Z,96105.97
2023-04-13T11:36:00.181Z,96102.50
2023-04-13T11:38:28.480Z,96110.66
2023-04-13T11:41:15.888Z,96105.94
2023-04-13T11:43:46.231Z,96106.75
2023-04-13T11:46:15.476Z,96103.38
2023-04-13T11:48:43.412Z,96105.78
2023-04-13T11:51:11.448Z,96104.91
2023-04-13T11:53:39.599Z,96105.56
2023-04-13T11:56:07.373Z,96108.50
2023-04-13T11:58:34.105Z,96104.13
2023-04-13T12:01:14.462Z,96100.69
2023-04-13T12:04:01.058Z,96108.72
2023-04-13T12:06:34.965Z,96108.38
2023-04-13T12:09:10.309Z,96105.56
2023-04-13T12:11:44.181Z,96105.34
2023-04-13T12:14:45.353Z,96107.66
2023-04-13T12:17:26.292Z,96109.16
2023-04-13T12:19:58.601Z,96106.03
2023-04-13T12:22:55.040Z,96111.41
2023-04-13T12:27:59.634Z,96110.38
2023-04-13T12:30:27.181Z,96105.09
2023-04-13T12:32:55.696Z,96113.22
2023-04-13T12:35:22.819Z,96107.44
2023-04-13T12:37:50.448Z,96117.19
2023-04-13T12:40:18.261Z,96114.56
2023-04-13T12:42:46.717Z,96116.25
2023-04-13T12:45:14.288Z,96114.44
2023-04-13T12:47:41.667Z,96109.06
2023-04-13T12:50:10.784Z,96112.06
2023-04-13T12:52:40.850Z,96105.00
2023-04-13T12:55:07.770Z,96117.63
2023-04-13T12:57:34.477Z,96118.13
2023-04-13T13:00:01.104Z,96112.03
2023-04-13T13:02:31.016Z,96114.44
2023-04-13T13:04:59.084Z,96115.66
2023-04-13T13:07:25.736Z,96118.44
2023-04-13T13:09:52.317Z,96114.50
2023-04-13T13:12:18.974Z,96118.53
2023-04-13T13:14:45.547Z,96118.53
2023-04-13T13:17:12.086Z,96118.34
2023-04-13T13:19:38.575Z,96112.34
2023-04-13T13:22:05.153Z,96112.63
2023-04-13T13:24:31.929Z,96115.97
2023-04-13T13:27:24.566Z,96108.75
2023-04-13T13:29:45.640Z,96109.31
2023-04-13T13:32:12.276Z,96106.44
2023-04-13T13:34:38.877Z,96102.81
2023-04-13T13:37:05.684Z,96104.78
2023-04-13T13:39:32.383Z,96106.72
2023-04-13T13:41:59.005Z,96110.19
2023-04-13T13:44:25.833Z,96108.53
2023-04-13T13:46:52.329Z,96107.53
2023-04-13T13:49:18.903Z,96105.91
2023-04-13T13:51:45.722Z,96101.28
2023-04-13T13:54:12.219Z,96105.09
2023-04-13T13:56:38.798Z,96111.66
2023-04-13T13:59:05.307Z,96111.91
2023-04-13T14:01:31.990Z,96104.13
2023-04-13T14:03:59.406Z,96105.13
2023-04-13T14:06:26.480Z,96111.31
2023-04-13T14:08:53.430Z,96110.03
2023-04-13T14:11:19.971Z,96104.78
2023-04-13T14:13:46.488Z,96092.25
2023-04-13T14:16:13.031Z,96086.66
2023-04-13T14:18:39.516Z,96081.59
2023-04-13T14:21:06.386Z,96090.28
2023-04-13T14:23:33.007Z,96081.19
2023-04-13T14:25:59.493Z,96084.50
2023-04-13T14:28:26.027Z,96086.34
2023-04-13T14:30:52.813Z,96081.91
2023-04-13T14:33:19.337Z,96079.06
2023-04-13T14:35:45.884Z,96075.75
2023-04-13T14:38:12.327Z,96080.59
2023-04-13T14:40:39.195Z,96068.81
2023-04-13T14:43:05.818Z,96077.41
2023-04-13T14:45:32.788Z,96075.63
2023-04-13T14:47:59.819Z,96071.91
2023-04-13T14:50:26.467Z,96065.19
2023-04-13T14:52:52.935Z,96070.81
2023-04-13T14:55:19.743Z,96081.81
2023-04-13T14:57:47.044Z,96090.81
2023-04-13T15:00:26.561Z,96096.63
2023-04-13T15:02:53.615Z,96099.47
2023-04-13T15:05:20.678Z,96087.13
2023-04-13T15:07:47.898Z,96074.72
2023-04-13T15:10:14.571Z,96060.38
2023-04-13T15:12:41.461Z,96052.28
2023-04-13T15:15:08.708Z,96080.31
2023-04-13T15:17:35.274Z,96135.13
2023-04-13T15:20:01.920Z,96177.09
2023-04-13T15:22:30.113Z,96164.84
2023-04-13T15:24:56.654Z,96148.88
2023-04-13T15:27:26.386Z,96130.41
2023-04-13T15:29:58.577Z,96130.25
2023-04-13T15:32:25.344Z,96113.19
2023-04-13T15:34:51.989Z,96111.41
2023-04-13T15:37:18.471Z,96111.66
2023-04-13T15:39:44.972Z,96115.84
2023-04-13T15:49:35.532Z,96127.19
2023-04-13T15:55:49.221Z,96133.72
2023-04-13T16:14:00.782Z,96165.78
2023-04-13T16:44:20.672Z,96212.50
2023-04-13T16:58:59.630Z,96223.38
2023-04-13T17:01:26.909Z,96225.41
2023-04-13T17:10:17.485Z,96222.13
2023-04-13T17:16:43.487Z,96211.34
2023-04-13T17:19:18.802Z,96205.72
2023-04-13T17:25:34.831Z,96203.03
2023-04-13T17:32:02.804Z,96193.88
2023-04-13T17:34:29.603Z,96193.88
2023-04-13T17:40:43.104Z,96186.53
2023-04-13T17:43:09.697Z,96188.63
2023-04-13T17:50:00.904Z,96182.97
2023-04-13T17:52:27.467Z,96186.22
2023-04-13T17:58:41.226Z,96176.56
2023-04-13T18:01:09.312Z,96182.53
2023-04-13T18:11:13.947Z,96199.84
2023-04-13T18:13:40.766Z,96208.44
2023-04-13T18:24:49.940Z,96224.56
2023-04-13T18:27:16.812Z,96209.78
2023-04-13T18:33:31.814Z,96214.72
2023-04-13T18:43:27.208Z,96201.63
2023-04-13T18:49:36.507Z,96189.72
2023-04-13T18:56:17.956Z,96223.09
